Latest Weather Observations for Mount Boyce

IDN60901

Issued at 4:01 am EST Friday 22 June 2018 (issued every 10 minutes, with the page automatically refreshed every 10 minutes)

About weather observations | Map of Sydney area stations | Latest observations for Sydney area | Other Formats
Station Details ID: 063292 Name: MOUNT BOYCE AWS Lat: -33.62 Lon: 150.27 Height: 1080.0 m
Data from the previous 72 hours. | See also: Recent months at Mount Boyce
Date/Time
EST
Temp
°C
App
Temp
°C
Dew
Point
°C
Rel
Hum
%
Delta-T
°C
Wind Press
QNH
hPa
Press
MSL
hPa
Rain since
9am
mm
Dir  Spd
km/h
Gust
km/h
Spd
kts
Gust
kts
22/04:00am 4.4 1.9 3.7 95 0.3 NNE 6 7 3 4 - - 0.2
22/03:30am 4.4 3.0 3.7 95 0.3 CALM 0 0 0 0 - - 0.2
22/03:00am 4.8 3.5 4.2 96 0.3 CALM 0 0 0 0 - - 0.2
22/02:46am 4.6 3.3 4.0 96 0.3 CALM 0 0 0 0 - - 0.2
22/02:30am 4.5 3.2 3.9 96 0.3 CALM 0 0 0 0 - - 0.2
22/02:20am 4.5 3.2 3.9 96 0.3 CALM 0 0 0 0 - - 0.2
22/02:04am 4.7 3.4 4.1 96 0.3 CALM 0 0 0 0 - - 0.2
22/02:00am 4.8 3.5 4.2 96 0.3 CALM 0 0 0 0 - - 0.2
22/01:48am 4.8 3.5 4.2 96 0.3 CALM 0 0 0 0 - - 0.2
22/01:40am 4.8 3.1 4.2 96 0.3 NNE 2 7 1 4 - - 0.2
22/01:36am 4.9 2.5 4.5 97 0.2 NNE 6 13 3 7 - - 0.2
22/01:30am 5.2 2.7 4.8 97 0.2 NE 7 13 4 7 - - 0.2
22/01:00am 4.9 2.3 4.3 96 0.3 ENE 7 11 4 6 - - 0.2
22/12:52am 5.0 2.4 4.4 96 0.3 NE 7 11 4 6 - - 0.2
22/12:51am 5.2 2.7 4.6 96 0.3 NE 7 11 4 6 - - 0.2
22/12:30am 4.8 3.5 4.2 96 0.3 CALM 0 0 0 0 - - 0.2
22/12:00am 5.0 2.4 4.4 96 0.3 NE 7 7 4 4 - - 0.2
 
Date/Time
EST
Temp
°C
App
Temp
°C
Dew
Point
°C
Rel
Hum
%
Delta-T
°C
Wind Press
QNH
hPa
Press
MSL
hPa
Rain since
9am
mm
Dir  Spd
km/h
Gust
km/h
Spd
kts
Gust
kts
21/11:30pm 4.8 2.7 4.1 95 0.3 NE 4 9 2 5 - - 0.0
21/11:00pm 5.2 4.0 4.6 96 0.3 CALM 0 0 0 0 - - 0.0
21/10:30pm 5.5 4.4 4.9 96 0.3 CALM 0 0 0 0 - - 0.0
21/10:00pm 5.2 3.2 4.6 96 0.3 ENE 4 6 2 3 - - 0.0
21/09:30pm 5.0 2.6 4.3 95 0.3 ENE 6 6 3 3 - - 0.0
21/09:00pm 5.2 2.8 4.5 95 0.3 ENE 6 7 3 4 - - 0.0
21/08:30pm 5.2 2.6 4.3 94 0.4 ENE 7 9 4 5 - - 0.0
21/08:00pm 5.7 3.4 5.0 95 0.3 N 6 9 3 5 - - 0.0
21/07:30pm 5.8 3.4 5.1 95 0.3 NE 7 9 4 5 - - 0.0
21/07:00pm 5.6 2.7 4.7 94 0.4 NE 9 11 5 6 - - 0.0
21/06:30pm 5.6 3.0 4.4 92 0.5 ENE 7 9 4 5 - - 0.0
21/06:00pm 5.9 3.4 4.5 91 0.6 ENE 7 9 4 5 - - 0.0
21/05:30pm 6.5 4.0 4.8 89 0.8 ENE 7 11 4 6 - - 0.0
21/05:00pm 7.0 4.6 4.5 84 1.2 ENE 6 9 3 5 - - 0.0
21/04:30pm 8.5 6.1 4.3 75 2.0 ENE 6 7 3 4 - - 0.0
21/04:00pm 10.1 8.7 3.4 63 3.1 CALM 0 0 0 0 - - 0.0
21/03:30pm 10.8 8.2 3.4 60 3.5 W 6 9 3 5 - - 0.0
21/03:00pm 10.8 8.2 4.0 63 3.2 WNW 7 11 4 6 - - 0.0
21/02:30pm 10.8 9.2 4.5 65 3.0 WNW 2 7 1 4 - - 0.0
21/02:00pm 9.7 8.6 4.9 72 2.3 CALM 0 7 0 4 - - 0.0
21/01:30pm 9.1 6.8 4.7 74 2.1 W 6 9 3 5 - - 0.0
21/01:00pm 8.5 5.4 3.8 72 2.2 W 9 13 5 7 - - 0.0
21/12:30pm 8.7 5.5 3.3 69 2.5 WNW 9 13 5 7 - - 0.0
21/12:00pm 8.4 5.3 3.7 72 2.2 WNW 9 13 5 7 - - 0.0
21/11:30am 8.3 5.6 3.9 74 2.0 W 7 9 4 5 - - 0.0
21/11:00am 7.7 4.9 3.0 72 2.1 W 7 9 4 5 - - 0.0
21/10:30am 7.8 5.3 3.7 75 1.9 W 6 9 3 5 - - 0.0
21/10:00am 8.5 6.1 4.3 75 2.0 SW 6 9 3 5 - - 0.0
21/09:30am 7.8 6.1 4.2 78 1.7 SW 2 7 1 4 - - 0.0
21/09:00am 6.7 5.2 3.1 78 1.6 CALM 0 0 0 0 - - 0.0
21/08:30am 6.3 4.8 3.1 80 1.4 CALM 0 0 0 0 - - 0.0
21/08:00am 5.7 4.2 2.9 82 1.2 CALM 0 0 0 0 - - 0.0
21/07:30am 5.1 3.4 1.9 80 1.4 CALM 0 4 0 2 - - 0.0
21/07:00am 4.7 3.0 1.7 81 1.3 CALM 0 0 0 0 - - 0.0
21/06:30am 5.2 3.6 2.6 83 1.1 CALM 0 7 0 4 - - 0.0
21/06:00am 4.6 2.2 2.3 85 1.0 ESE 4 7 2 4 - - 0.0
21/05:30am 4.2 1.3 1.4 82 1.2 ENE 6 7 3 4 - - 0.0
21/05:00am 4.4 1.5 1.4 81 1.3 E 6 9 3 5 - - 0.0
21/04:30am 4.9 3.1 1.4 78 1.5 CALM 0 0 0 0 - - 0.0
21/04:00am 4.3 2.2 1.8 84 1.1 WSW 2 6 1 3 - - 0.0
21/03:30am 4.2 1.1 1.4 82 1.2 WSW 7 11 4 6 - - 0.0
21/03:00am 4.9 3.2 1.7 80 1.4 CALM 0 0 0 0 - - 0.0
21/02:30am 4.9 3.2 1.6 79 1.4 CALM 0 4 0 2 - - 0.0
21/02:00am 4.6 1.2 2.1 84 1.1 S 9 11 5 6 - - 0.0
21/01:30am 4.1 2.5 2.3 88 0.8 CALM 0 0 0 0 - - 0.0
21/01:00am 4.1 2.4 2.1 87 0.9 CALM 0 0 0 0 - - 0.0
21/12:30am 4.4 2.8 2.3 86 0.9 CALM 0 0 0 0 - - 0.0
21/12:00am 4.4 2.7 2.1 85 1.0 CALM 0 0 0 0 - - 0.0
 
Date/Time
EST
Temp
°C
App
Temp
°C
Dew
Point
°C
Rel
Hum
%
Delta-T
°C
Wind Press
QNH
hPa
Press
MSL
hPa
Rain since
9am
mm
Dir  Spd
km/h
Gust
km/h
Spd
kts
Gust
kts
20/11:30pm 4.3 2.7 2.2 86 0.9 CALM 0 0 0 0 - - 0.0
20/11:00pm 4.3 1.5 2.2 86 0.9 WSW 6 7 3 4 - - 0.0
20/10:30pm 4.4 2.8 2.4 87 0.9 CALM 0 0 0 0 - - 0.0
20/10:00pm 4.6 3.0 2.6 87 0.9 CALM 0 0 0 0 - - 0.0
20/09:30pm 4.4 2.8 2.3 86 0.9 CALM 0 0 0 0 - - 0.0
20/09:00pm 4.6 2.9 2.1 84 1.1 CALM 0 0 0 0 - - 0.0
20/08:30pm 5.0 2.3 2.5 84 1.1 SE 6 7 3 4 - - 0.0
20/08:00pm 5.1 2.4 2.6 84 1.1 E 6 7 3 4 - - 0.0
20/07:30pm 5.1 2.1 2.3 82 1.2 ESE 7 9 4 5 - - 0.0
20/07:00pm 5.2 1.9 2.4 82 1.2 ESE 9 11 5 6 - - 0.0
20/06:30pm 5.3 2.9 2.1 80 1.4 E 4 9 2 5 - - 0.0
20/06:00pm 6.3 4.4 2.6 77 1.6 SSE 2 6 1 3 - - 0.0
20/05:30pm 6.6 3.8 2.9 77 1.7 S 7 11 4 6 - - 0.0
20/05:00pm 6.8 4.6 3.2 78 1.6 SSE 4 9 2 5 - - 0.0
20/04:30pm 7.0 5.5 2.9 75 1.8 CALM 0 2 0 1 - - 0.0
20/04:00pm 7.3 5.0 3.0 74 1.9 SE 4 9 2 5 - - 0.0
20/03:30pm 9.0 6.8 3.4 68 2.6 SSE 4 13 2 7 - - 0.0
20/03:00pm 8.1 4.9 3.2 71 2.2 SE 9 15 5 8 - - 0.0
20/02:30pm 8.4 6.3 3.7 72 2.2 E 4 9 2 5 - - 0.0
20/02:00pm 9.5 6.6 2.8 63 3.1 ENE 7 13 4 7 - - 0.0
20/01:30pm 9.0 6.4 3.4 68 2.6 E 6 13 3 7 - - 0.0
20/01:00pm 10.4 7.4 3.9 64 3.1 E 9 19 5 10 - - 0.0
20/12:30pm 9.2 6.1 3.6 68 2.6 ESE 9 17 5 9 - - 0.0
20/12:00pm 8.2 5.4 3.1 70 2.3 ENE 7 15 4 8 - - 0.0
20/11:30am 10.0 7.0 4.2 67 2.7 E 9 17 5 9 - - 0.0
20/11:09am 8.6 6.1 5.0 78 1.7 ESE 7 11 4 6 - - 0.0
20/11:00am 8.0 5.1 4.6 79 1.6 E 9 19 5 10 - - 0.0
20/10:30am 6.9 3.0 3.3 78 1.6 ESE 13 26 7 14 - - 0.0
20/10:00am 6.6 3.1 3.6 81 1.4 SE 11 20 6 11 - - 0.0
20/09:30am 6.2 2.8 3.9 85 1.0 SE 11 20 6 11 - - 0.0
20/09:00am 5.3 1.8 3.6 89 0.8 SE 11 20 6 11 - - 3.8
20/08:30am 4.8 0.9 3.5 91 0.6 SE 13 20 7 11 - - 3.8
20/08:00am 4.6 1.1 3.7 94 0.4 SE 11 20 6 11 - - 3.8
20/07:30am 4.2 -0.1 3.3 94 0.4 SE 15 33 8 18 - - 3.8
20/07:00am 4.2 0.3 3.3 94 0.4 SSE 13 26 7 14 - - 3.8
20/06:30am 4.5 0.6 3.6 94 0.4 SE 13 26 7 14 - - 3.8
20/06:00am 4.6 1.2 3.9 95 0.3 SE 11 20 6 11 - - 3.8
20/05:30am 4.6 1.2 3.9 95 0.3 SSE 11 17 6 9 - - 3.8
20/05:00am 4.6 0.8 3.9 95 0.3 S 13 22 7 12 - - 3.8
20/04:30am 4.7 1.3 4.1 96 0.3 S 11 20 6 11 - - 3.8
20/04:00am 4.8 0.7 4.4 97 0.2 SSE 15 30 8 16 - - 3.8
20/03:33am 4.9 1.2 4.5 97 0.2 SSE 13 22 7 12 - - 3.8
20/03:30am 4.9 1.2 4.5 97 0.2 SSE 13 22 7 12 - - 3.8
20/03:00am 5.1 0.7 4.7 97 0.2 SSW 17 32 9 17 - - 3.6
20/02:30am 5.0 1.3 4.6 97 0.2 SSW 13 24 7 13 - - 3.6
20/02:00am 5.0 1.3 4.4 96 0.3 SW 13 26 7 14 - - 3.6
20/01:30am 5.1 1.4 4.4 95 0.3 SSW 13 22 7 12 - - 3.2
20/01:06am 5.2 1.9 4.3 94 0.4 SSW 11 22 6 12 - - 3.0
20/01:01am 5.2 1.9 4.3 94 0.4 SSW 11 19 6 10 - - 3.0
20/01:00am 5.2 1.5 4.3 94 0.4 SSW 13 19 7 10 - - 3.0
20/12:40am 5.2 1.8 4.2 93 0.5 SSW 11 22 6 12 - - 3.0
20/12:30am 5.3 1.5 4.1 92 0.5 S 13 26 7 14 - - 3.0
20/12:00am 5.3 1.9 4.1 92 0.5 S 11 19 6 10 - - 3.0
 
Date/Time
EST
Temp
°C
App
Temp
°C
Dew
Point
°C
Rel
Hum
%
Delta-T
°C
Wind Press
QNH
hPa
Press
MSL
hPa
Rain since
9am
mm
Dir  Spd
km/h
Gust
km/h
Spd
kts
Gust
kts
19/11:30pm 5.2 1.4 4.0 92 0.5 SSE 13 28 7 15 - - 3.0
19/11:00pm 5.2 1.5 4.2 93 0.5 SSE 13 28 7 15 - - 3.0
19/10:30pm 5.3 1.2 4.3 93 0.5 SSE 15 30 8 16 - - 3.0
19/10:00pm 5.2 0.7 4.3 94 0.4 SSE 17 30 9 16 - - 3.0
19/09:30pm 5.1 0.6 4.1 93 0.5 SSE 17 41 9 22 - - 3.0
19/09:00pm 5.1 1.0 4.1 93 0.5 S 15 43 8 23 - - 3.0
19/08:30pm 5.0 1.2 4.0 93 0.5 SSE 13 26 7 14 - - 3.0
19/08:00pm 5.0 0.8 4.0 93 0.5 S 15 32 8 17 - - 3.0
19/07:30pm 5.1 0.5 3.8 91 0.6 S 17 26 9 14 - - 3.0
19/07:00pm 5.1 1.2 3.6 90 0.7 S 13 24 7 13 - - 3.0
19/06:30pm 5.2 0.2 3.5 89 0.8 S 19 37 10 20 - - 3.0
19/06:00pm 5.0 0.8 3.7 91 0.6 SSW 15 32 8 17 - - 3.0
19/05:30pm 5.0 0.4 3.5 90 0.7 SW 17 24 9 13 - - 3.0
19/05:00pm 5.0 0.4 3.5 90 0.7 SW 17 30 9 16 - - 3.0
19/04:30pm 5.0 0.8 3.7 91 0.6 SSW 15 26 8 14 - - 3.0
19/04:00pm 5.2 0.6 3.9 91 0.6 SSW 17 32 9 17 - - 3.0
19/03:30pm 5.3 1.2 4.6 95 0.3 SSW 15 22 8 12 - - 3.0
19/03:05pm 4.9 0.4 4.3 96 0.3 SW 17 26 9 14 - - 3.0
19/03:00pm 4.9 0.8 4.3 96 0.3 SW 15 22 8 12 - - 3.0
19/02:30pm 4.8 0.7 4.1 95 0.3 SW 15 26 8 14 - - 2.4
19/02:10pm 4.9 1.1 3.9 93 0.4 SSW 13 24 7 13 - - 1.2
19/02:02pm 5.1 1.7 4.1 93 0.5 SSW 11 17 6 9 - - 0.8
19/02:00pm 5.1 1.7 4.1 93 0.5 SSW 11 20 6 11 - - 0.6
19/01:35pm 5.2 0.6 3.7 90 0.7 SSW 17 28 9 15 - - 0.4
19/01:30pm 5.3 0.3 3.6 89 0.8 SSW 19 30 10 16 - - 0.4
19/01:17pm 5.8 1.7 4.1 89 0.8 SSW 15 26 8 14 - - 0.4
19/01:00pm 6.2 1.5 3.4 82 1.3 SW 17 28 9 15 - - 0.0
19/12:30pm 6.2 2.2 3.0 80 1.4 SW 13 28 7 15 - - 0.0
19/12:28pm 6.2 1.9 3.2 81 1.3 SW 15 30 8 16 - - 0.0
19/12:00pm 5.7 1.0 3.2 84 1.1 SSW 17 28 9 15 - - 0.0
19/11:30am 5.2 0.5 3.2 87 0.9 SSW 17 32 9 17 - - 0.0
19/11:00am 5.4 0.4 3.6 88 0.8 SW 19 33 10 18 - - 0.0
19/10:30am 5.3 -0.3 3.5 88 0.8 SSW 22 39 12 21 - - 0.0
19/10:00am 4.6 -0.7 2.9 89 0.7 SSW 20 39 11 21 - - 0.0
19/09:30am 4.6 0.6 2.9 89 0.7 SSW 13 26 7 14 - - 0.0
19/09:00am 4.2 -0.9 2.9 91 0.6 SW 19 28 10 15 - - 1.8
19/08:30am 3.8 -1.9 2.6 92 0.5 SSW 22 35 12 19 - - 1.8
19/08:00am 3.5 -1.7 2.5 93 0.4 SSW 19 35 10 19 - - 1.8
19/07:30am 3.3 -1.9 2.4 94 0.4 SSW 19 30 10 16 - - 1.8
19/07:00am 3.2 -2.2 2.3 94 0.4 SSW 20 41 11 22 - - 1.8
19/06:30am 3.0 -3.2 2.1 94 0.4 SSW 24 37 13 20 - - 1.8
19/06:00am 2.6 -2.9 1.9 95 0.3 SSW 20 37 11 20 - - 1.8
19/05:34am 2.1 -2.9 1.4 95 0.3 SW 17 28 9 15 - - 1.6
19/05:30am 2.1 -2.9 1.4 95 0.3 SW 17 28 9 15 - - 1.6
19/05:00am 1.9 -3.6 0.9 93 0.4 SW 19 30 10 16 - - 1.4
19/04:49am 2.1 -3.6 0.8 91 0.5 SW 20 32 11 17 - - 0.8
19/04:47am 2.1 -3.4 0.8 91 0.5 SW 19 32 10 17 - - 0.8
19/04:30am 2.4 -4.0 0.8 89 0.7 SW 24 37 13 20 - - 0.8

Latest Capital City Observations: Canberra | Sydney | Melbourne | Brisbane | Adelaide | Perth | Hobart | Darwin

Other Formats:

Comma delimited format used in spreadsheet applications
http://www.bom.gov.au/fwo/IDN60901/IDN60901.94743.axf

JavaScript Object Notation format (JSON) in row-major order
http://www.bom.gov.au/fwo/IDN60901/IDN60901.94743.json